コペンハーゲン国際空港の過去48時間の天気

コペンハーゲン国際空港 (Koebenhavn / Kastrup)

現在時刻: 8/4 22:16 CEST (8/4 20:16 UTC) 以下の時間は現地時間です。

過去48時間のMETAR気象情報
時間 風向 風速(m/s) 視程 気温(℃) 湿度(%) 気圧(hPa) 天気現象
4 21:50 南西 4 10km以上 16 72 1015
EKCH 041950Z AUTO 22007KT 9999 FEW059/// FEW067/// 16/11 Q1015 NOSIG